Portada
METAR-TAF:

METAR-TAF

Aeropuertos :

Aeropuerto de Santander

Santander, España

latitud: 43-26N, longitud: 003-49W, altitud: 6 m

Observación

El informe se hizo hace 10 minutos, a las 20:30 UTC
Viento 12 kt del sur-suroeste, variando entre sur y oeste-suroeste
Temperatura 15°C
Humedad 51%
Presión 1009 hPa
Visibilidad 10 km o más
Escasas nubes a una altura de 8600 ft

METAR: LEXJ 212030Z 20012KT 170V240 9999 FEW086 15/05 Q1009

Hora: 21:40 (20:40 UTC)

Pronóstico

El informe se hizo hace 40 minutos, a las 20:00 UTC
Pronóstico válido del 21 a las 21 UTC al 22 a las 21 UTC
Viento 9 kt del sur
Visibilidad 10 km o más
sin nubes por debajo de 1500 m y sin presencia de cumulonimbus.
Temporalmente
del 21 a las 21 UTC al 22 a las 15 UTC
Viento 15 kt del sur-suroeste con ráfagas de 28 kt

TAF: LEXJ 212000Z 2121/2221 19009KT CAVOK TX16/2215Z TN09/2206Z TEMPO 2121/2215 20015G28KT

Observaciones y pronósticos meteorológicos de más de 4000 aeropuertos (mensajes METAR y TAF).

Los puntos amarillos y rojos representan las estaciones disponibles.

Ponga el ratón en el punto deseado para ver el nombre de la estación.

Haga clic para ver las observaciones y los pronósticos meteorológicos.

Para cambiar el mapa : haga clic en los botones verdes con una cruz de color negro para hacer un zoom, en el botón verde con un guión para alejar o en las flechas verdes para mapas adyacentes.


METAR-TAF: